Chignik Lagoon, AK (99565)

12:27 PM AKDT on July 22, 2014 (GMT -0800)
Chignik (PAJC) Elev 16 ft | 56.31 °N, 158.37 °W | Change Station

Current weather conditions updated 11 minutes ago

Overcast
Overcast
57 °F
Feels Like 57 °F
N
9
Wind Variable Wind from West

Today is forecast to be Cooler than yesterday. Light rain.

Today
High -- | Low -- °F
--% Chance of Precip.
Yesterday
High -- | Low -- °F
Precip. -- in
6:19 AM 11:00 PM
Waning Crescent, 15% visible
Pressure 30.00 in
Visibility -9999.0 miles
Clouds Mostly Cloudy 2700 ft
Mostly Cloudy 3500 ft
Overcast 5500 ft
Dew Point 48 °F
Humidity 72%
Rainfall 0.00 in
Snow Depth Not available.
UV 2 out of 12
Pollen Not available.
Air Quality Not available.
Flu Activity Sporadic
METAR PAJC 222016Z AUTO 26008KT 200V340 BKN027 BKN035 OVC055 14/09 A3000 RMK AO1

More Conditions Fewer Conditions

Pressure 30.00 in
Visibility -9999.0 miles
Clouds Mostly Cloudy 2700 ft
Mostly Cloudy 3500 ft
Overcast 5500 ft
Dew Point 48 °F
Humidity 72%
Rainfall 0.00 in
Snow Depth Not available.
UV 2 out of 12
Pollen Not available.
Air Quality Not available.
Flu Activity Sporadic
METAR PAJC 222016Z AUTO 26008KT 200V340 BKN027 BKN035 OVC055 14/09 A3000 RMK AO1

More Conditions Fewer Conditions

10-Day Weather Forecast

Almanac

Astronomy

Jul. 22, 2014 Rise Set
Actual Time 6:19 AM AKDT 11:00 PM AKDT
Civil Twilight 5:25 AM AKDT 11:52 PM AKDT
Nautical Twilight 3:54 AM AKDT 1:22 AM AKDT
Astronomical Twilight Sun does not rise Sun does not rise
Moon 3:09 AM AKDT 7:42 PM AKDT
Length of Visible Light 18h 27m
Length of Day
16h 41m
Tomorrow will be 3m 26s shorter.
Waning Crescent, 15% of the Moon is Illuminated
Today
Waning Crescent
Jul 26
New
Aug 3
First Quarter
Aug 10
Full
Aug 17
Last Quarter

Today's Extremes

State Highs State Lows

Community

WunderPhotos

Upload Photos

1,736,345 photos uploaded!

Nearby

Snow Depth

Station Depth Elevation
Port Graham 0 in 300 ft
Mcneil Canyon 1 in 1320 ft
MF Bradley River 24 in 2300 ft
Cooper Lake 16 in 1200 ft
Grouse Creek Divide 0 in 700 ft

Earthquake Activity

City Distance Mag. Time & Date
No recent earthquake activity has been reported nearby.
Minimum magnitude displayed is 2.5.

Coastal Water Temperatures

Place Temperature
No Stations Reporting

Nearby Weather Stations

There are no personal weather stations in this area.